Time,TemperatureF,DewpointF,PressureIn,WindDirection,WindDirectionDegrees,WindSpeedMPH,WindSpeedGustMPH,Humidity,HourlyPrecipIn,Conditions,Clouds,dailyrainin,SoftwareType,DateUTC
2013-07-03 00:00:00,61.2,57.3,28.89,SW,225,1.6,1.6,87,0.00,RA,,0.00,WeatherDisplay:10.37,2013-07-03 05:00:00,
2013-07-03 00:05:00,61.2,57.3,28.90,SW,225,1.2,1.2,87,0.00,RA,,0.00,WeatherDisplay:10.37,2013-07-03 05:05:00,
2013-07-03 00:09:00,61.0,56.8,28.90,NE,45,2.3,2.3,86,0.00,RA,,0.00,WeatherDisplay:10.37,2013-07-03 05:09:00,
2013-07-03 00:14:00,59.7,55.5,28.90,East,90,3.5,3.5,86,0.00,CLR,,0.00,WeatherDisplay:10.37,2013-07-03 05:14:00,
2013-07-03 00:19:00,59.4,55.8,28.90,NE,45,1.2,1.2,88,0.00,CLR,,0.00,WeatherDisplay:10.37,2013-07-03 05:19:00,
2013-07-03 00:20:00,59.5,56.0,28.90,NE,45,1.2,1.2,88,0.00,CLR,,0.00,WeatherDisplay:10.37,2013-07-03 05:20:00,
2013-07-03 00:25:00,59.5,56.9,28.90,NE,45,3.5,3.5,91,0.00,CLR,,0.00,WeatherDisplay:10.37,2013-07-03 05:25:00,
2013-07-03 00:30:00,59.5,57.2,28.90,NE,45,3.5,3.5,92,0.00,CLR,,0.00,WeatherDisplay:10.37,2013-07-03 05:30:00,
2013-07-03 00:35:00,59.4,57.0,28.90,NE,45,2.3,2.3,92,0.00,CLR,,0.00,WeatherDisplay:10.37,2013-07-03 05:35:00,
2013-07-03 00:41:00,59.2,57.2,28.89,North,0,3.5,3.5,93,0.00,CLR,,0.00,WeatherDisplay:10.37,2013-07-03 05:41:00,
2013-07-03 00:46:00,59.5,57.8,28.90,NE,45,3.5,3.5,94,0.00,CLR,,0.00,WeatherDisplay:10.37,2013-07-03 05:46:00,
2013-07-03 00:51:00,59.2,57.2,28.89,NE,45,3.5,3.5,93,0.00,CLR,,0.00,WeatherDisplay:10.37,2013-07-03 05:51:00,
2013-07-03 00:54:00,59.0,57.0,28.89,East,90,1.2,1.2,93,0.00,CLR,,0.00,WeatherDisplay:10.37,2013-07-03 05:54:00,
2013-07-03 00:58:00,58.8,56.8,28.89,East,90,1.2,0.0,93,0.00,CLR,,0.00,WeatherDisplay:10.37,2013-07-03 05:58:00,
2013-07-03 00:59:00,58.8,56.8,28.89,East,90,1.2,0.0,93,0.00,CLR,,0.00,WeatherDisplay:10.37,2013-07-03 05:59:00,
2013-07-03 01:02:00,58.8,56.8,28.89,East,90,1.2,0.0,93,0.00,CLR,,0.00,WeatherDisplay:10.37,2013-07-03 06:02:00,
2013-07-03 01:07:00,59.2,57.2,28.89,NE,45,1.2,1.2,93,0.00,CLR,,0.00,WeatherDisplay:10.37,2013-07-03 06:07:00,
2013-07-03 01:12:00,59.4,57.6,28.89,NE,45,1.2,0.0,94,0.00,CLR,,0.00,WeatherDisplay:10.37,2013-07-03 06:12:00,
2013-07-03 01:14:00,59.5,57.8,28.89,NE,45,1.2,0.0,94,0.00,CLR,,0.00,WeatherDisplay:10.37,2013-07-03 06:14:00,
2013-07-03 01:16:00,59.5,57.8,28.89,NE,45,0.0,0.0,94,0.00,CLR,,0.00,WeatherDisplay:10.37,2013-07-03 06:16:00,
2013-07-03 01:19:00,59.5,57.5,28.89,East,90,2.3,2.3,93,0.00,CLR,,0.00,WeatherDisplay:10.37,2013-07-03 06:19:00,
2013-07-03 01:22:00,59.2,56.9,28.89,East,90,1.2,0.0,92,0.00,CLR,,0.00,WeatherDisplay:10.37,2013-07-03 06:22:00,
2013-07-03 01:24:00,59.0,56.7,28.89,East,90,1.2,0.0,92,0.00,CLR,,0.00,WeatherDisplay:10.37,2013-07-03 06:24:00,
2013-07-03 01:26:00,58.8,56.5,28.89,East,90,0.0,0.0,92,0.00,CLR,,0.00,WeatherDisplay:10.37,2013-07-03 06:26:00,
2013-07-03 01:31:00,58.5,56.1,28.89,East,90,1.2,0.0,92,0.00,CLR,,0.00,WeatherDisplay:10.37,2013-07-03 06:31:00,
2013-07-03 01:33:00,58.3,56.0,28.89,East,90,1.2,1.2,92,0.00,CLR,,0.00,WeatherDisplay:10.37,2013-07-03 06:33:00,
2013-07-03 01:38:00,57.9,55.6,28.89,East,90,1.2,0.0,92,0.00,CLR,,0.00,WeatherDisplay:10.37,2013-07-03 06:38:00,
2013-07-03 01:43:00,57.7,55.4,28.89,NE,45,1.2,0.0,92,0.00,CLR,,0.00,WeatherDisplay:10.37,2013-07-03 06:43:00,
2013-07-03 01:48:00,57.6,55.6,28.89,NE,45,1.2,0.0,93,0.00,CLR,,0.00,WeatherDisplay:10.37,2013-07-03 06:48:00,
2013-07-03 01:53:00,57.7,56.0,28.88,NE,45,1.2,1.2,94,0.00,CLR,,0.00,WeatherDisplay:10.37,2013-07-03 06:53:00,
2013-07-03 01:55:00,57.7,56.0,28.89,NE,45,1.2,0.0,94,0.00,CLR,,0.00,WeatherDisplay:10.37,2013-07-03 06:55:00,
2013-07-03 02:01:00,57.7,56.0,28.88,NE,45,0.0,0.0,94,0.00,CLR,,0.00,WeatherDisplay:10.37,2013-07-03 07:01:00,
2013-07-03 02:06:00,57.7,56.0,28.88,NE,45,0.0,0.0,94,0.00,CLR,,0.00,WeatherDisplay:10.37,2013-07-03 07:06:00,
2013-07-03 02:11:00,57.7,56.3,28.88,NW,315,2.3,2.3,95,0.00,CLR,,0.00,WeatherDisplay:10.37,2013-07-03 07:11:00,
2013-07-03 02:17:00,57.6,56.1,28.89,NW,315,1.2,1.2,95,0.00,CLR,,0.00,WeatherDisplay:10.37,2013-07-03 07:17:00,
2013-07-03 02:22:00,57.4,55.7,28.88,NW,315,1.2,0.0,94,0.00,CLR,,0.00,WeatherDisplay:10.37,2013-07-03 07:22:00,
2013-07-03 02:27:00,57.2,55.5,28.88,South,180,2.3,2.3,94,0.00,CLR,,0.00,WeatherDisplay:10.37,2013-07-03 07:27:00,
2013-07-03 02:32:00,57.0,55.3,28.88,South,180,1.2,0.0,94,0.00,CLR,,0.00,WeatherDisplay:10.37,2013-07-03 07:32:00,
2013-07-03 02:38:00,56.5,54.8,28.88,NE,45,2.3,2.3,94,0.00,CLR,,0.00,WeatherDisplay:10.37,2013-07-03 07:38:00,
2013-07-03 02:43:00,56.3,54.6,28.88,NE,45,1.2,1.2,94,0.00,CLR,,0.00,WeatherDisplay:10.37,2013-07-03 07:43:00,
2013-07-03 02:48:00,56.1,54.7,28.88,NE,45,1.2,0.0,95,0.00,CLR,,0.00,WeatherDisplay:10.37,2013-07-03 07:48:00,
2013-07-03 02:51:00,55.9,54.5,28.88,NE,45,1.2,0.0,95,0.00,CLR,,0.00,WeatherDisplay:10.37,2013-07-03 07:51:00,
2013-07-03 02:56:00,55.6,53.9,28.88,East,90,1.2,1.2,94,0.00,CLR,,0.00,WeatherDisplay:10.37,2013-07-03 07:56:00,
2013-07-03 03:01:00,55.4,53.7,28.88,NE,45,1.2,1.2,94,0.00,CLR,,0.00,WeatherDisplay:10.37,2013-07-03 08:01:00,
2013-07-03 03:06:00,55.4,53.7,28.87,NE,45,1.2,1.2,94,0.00,CLR,,0.00,WeatherDisplay:10.37,2013-07-03 08:06:00,
2013-07-03 03:10:00,55.6,54.5,28.87,NE,45,3.5,3.5,96,0.00,CLR,,0.00,WeatherDisplay:10.37,2013-07-03 08:10:00,
2013-07-03 03:14:00,55.6,54.5,28.87,NE,45,3.5,3.5,96,0.00,CLR,,0.00,WeatherDisplay:10.37,2013-07-03 08:14:00,
2013-07-03 03:18:00,55.4,54.3,28.87,East,90,3.5,3.5,96,0.00,CLR,,0.00,WeatherDisplay:10.37,2013-07-03 08:18:00,
2013-07-03 03:23:00,55.2,54.4,28.87,East,90,2.3,2.3,97,0.00,CLR,,0.00,WeatherDisplay:10.37,2013-07-03 08:23:00,
2013-07-03 03:28:00,55.2,54.4,28.87,East,90,2.3,2.3,97,0.00,CLR,,0.00,WeatherDisplay:10.37,2013-07-03 08:28:00,
2013-07-03 03:33:00,55.8,55.2,28.87,NE,45,3.5,3.5,98,0.00,CLR,,0.00,WeatherDisplay:10.37,2013-07-03 08:33:00,
2013-07-03 03:38:00,55.8,55.2,28.87,NE,45,3.5,3.5,98,0.00,CLR,,0.00,WeatherDisplay:10.37,2013-07-03 08:38:00,
2013-07-03 03:41:00,55.8,55.2,28.87,NE,45,3.5,3.5,98,0.00,CLR,,0.00,WeatherDisplay:10.37,2013-07-03 08:41:00,
2013-07-03 03:45:00,55.8,55.5,28.87,NE,45,2.3,2.3,99,0.00,CLR,,0.00,WeatherDisplay:10.37,2013-07-03 08:45:00,
2013-07-03 03:50:00,55.9,55.7,28.87,NE,45,1.2,0.0,99,0.00,CLR,,0.00,WeatherDisplay:10.37,2013-07-03 08:50:00,
2013-07-03 03:54:00,55.9,55.4,28.87,NE,45,0.0,0.0,98,0.00,CLR,,0.00,WeatherDisplay:10.37,2013-07-03 08:54:00,
2013-07-03 03:55:00,55.9,55.4,28.87,NE,45,0.0,0.0,98,0.00,CLR,,0.00,WeatherDisplay:10.37,2013-07-03 08:55:00,
2013-07-03 04:01:00,55.9,55.4,28.87,NE,45,0.0,0.0,98,0.00,CLR,,0.00,WeatherDisplay:10.37,2013-07-03 09:01:00,
2013-07-03 04:06:00,55.9,55.4,28.87,NE,45,0.0,0.0,98,0.00,CLR,,0.00,WeatherDisplay:10.37,2013-07-03 09:06:00,
2013-07-03 04:11:00,55.4,54.8,28.87,SW,225,1.2,0.0,98,0.00,CLR,,0.00,WeatherDisplay:10.37,2013-07-03 09:11:00,
2013-07-03 04:16:00,55.2,54.4,28.87,NE,45,3.5,3.5,97,0.00,CLR,,0.00,WeatherDisplay:10.37,2013-07-03 09:16:00,
2013-07-03 04:21:00,54.9,54.0,28.87,NE,45,1.2,0.0,97,0.00,CLR,,0.00,WeatherDisplay:10.37,2013-07-03 09:21:00,
2013-07-03 04:26:00,54.5,53.7,28.86,SE,135,1.2,1.2,97,0.00,CLR,,0.00,WeatherDisplay:10.37,2013-07-03 09:26:00,
2013-07-03 04:32:00,54.1,53.6,28.87,South,180,1.2,0.0,98,0.00,CLR,,0.00,WeatherDisplay:10.37,2013-07-03 09:32:00,
2013-07-03 04:37:00,54.0,53.4,28.87,South,180,0.0,0.0,98,0.00,CLR,,0.00,WeatherDisplay:10.37,2013-07-03 09:37:00,
2013-07-03 04:41:00,54.1,53.6,28.86,South,180,1.2,0.0,98,0.00,CLR,,0.00,WeatherDisplay:10.37,2013-07-03 09:41:00,
2013-07-03 04:47:00,54.3,53.8,28.87,South,180,1.6,0.0,98,0.00,CLR,,0.00,WeatherDisplay:10.37,2013-07-03 09:47:00,
2013-07-03 04:50:00,54.3,53.8,28.87,North,0,1.2,0.0,98,0.00,CLR,,0.00,WeatherDisplay:10.37,2013-07-03 09:50:00,
2013-07-03 04:53:00,54.7,54.1,28.87,North,0,1.2,0.0,98,0.00,CLR,,0.00,WeatherDisplay:10.37,2013-07-03 09:53:00,
2013-07-03 04:58:00,54.9,54.3,28.87,NW,315,1.2,0.0,98,0.00,CLR,,0.00,WeatherDisplay:10.37,2013-07-03 09:58:00,
2013-07-03 05:03:00,54.7,54.1,28.87,South,180,2.3,2.3,98,0.00,CLR,,0.00,WeatherDisplay:10.37,2013-07-03 10:03:00,
2013-07-03 05:05:00,54.7,54.1,28.87,South,180,2.3,2.3,98,0.00,CLR,,0.00,WeatherDisplay:10.37,2013-07-03 10:05:00,
2013-07-03 05:06:00,54.7,54.1,28.87,South,180,2.3,2.3,98,0.00,CLR,,0.00,WeatherDisplay:10.37,2013-07-03 10:06:00,
2013-07-03 05:11:00,54.1,53.6,28.87,SW,225,0.0,0.7,98,0.00,CLR,,0.00,WeatherDisplay:10.37,2013-07-03 10:11:00,
2013-07-03 05:17:00,54.3,53.8,28.87,SW,225,1.2,1.2,98,0.00,CLR,,0.00,WeatherDisplay:10.37,2013-07-03 10:17:00,
2013-07-03 05:22:00,54.3,53.8,28.87,SW,225,1.2,1.2,98,0.00,CLR,,0.00,WeatherDisplay:10.37,2013-07-03 10:22:00,
2013-07-03 05:28:00,54.3,53.8,28.87,South,180,1.2,0.0,98,0.00,CLR,,0.00,WeatherDisplay:10.37,2013-07-03 10:28:00,
2013-07-03 05:32:00,54.5,53.9,28.87,SW,225,1.2,1.2,98,0.00,CLR,,0.00,WeatherDisplay:10.37,2013-07-03 10:32:00,
2013-07-03 05:37:00,54.7,54.4,28.87,SW,225,1.2,0.0,99,0.00,CLR,,0.00,WeatherDisplay:10.37,2013-07-03 10:37:00,
2013-07-03 05:42:00,54.5,53.9,28.88,South,180,1.2,0.0,98,0.00,CLR,,0.00,WeatherDisplay:10.37,2013-07-03 10:42:00,
2013-07-03 05:49:00,54.1,53.6,28.88,East,90,1.2,1.2,98,0.00,CLR,,0.00,WeatherDisplay:10.37,2013-07-03 10:49:00,
2013-07-03 05:54:00,53.8,53.2,28.87,NE,45,1.2,1.2,98,0.00,CLR,,0.00,WeatherDisplay:10.37,2013-07-03 10:54:00,
2013-07-03 05:55:00,53.6,53.0,28.87,NE,45,1.2,1.2,98,0.00,CLR,,0.00,WeatherDisplay:10.37,2013-07-03 10:55:00,
2013-07-03 05:57:00,53.6,53.0,28.87,NE,45,1.2,1.2,98,0.00,CLR,,0.00,WeatherDisplay:10.37,2013-07-03 10:57:00,
2013-07-03 06:02:00,53.8,53.5,28.88,NE,45,2.3,0.0,99,0.00,CLR,,0.00,WeatherDisplay:10.37,2013-07-03 11:02:00,
2013-07-03 06:08:00,54.0,53.7,28.88,NE,45,1.2,0.0,99,0.00,CLR,,0.00,WeatherDisplay:10.37,2013-07-03 11:08:00,
2013-07-03 06:09:00,54.0,53.7,28.88,NE,45,1.2,0.0,99,0.00,CLR,,0.00,WeatherDisplay:10.37,2013-07-03 11:09:00,
2013-07-03 06:15:00,54.3,54.0,28.88,NE,45,0.0,2.0,99,0.00,CLR,,0.00,WeatherDisplay:10.37,2013-07-03 11:15:00,
2013-07-03 06:19:00,54.7,54.4,28.88,NE,45,2.3,2.3,99,0.00,CLR,,0.00,WeatherDisplay:10.37,2013-07-03 11:19:00,
2013-07-03 06:23:00,54.9,54.6,28.88,NE,45,2.3,2.3,99,0.00,CLR,,0.00,WeatherDisplay:10.37,2013-07-03 11:23:00,
2013-07-03 06:25:00,54.9,54.6,28.88,NE,45,2.3,2.3,99,0.00,CLR,,0.00,WeatherDisplay:10.37,2013-07-03 11:25:00,
2013-07-03 06:30:00,55.0,54.8,28.88,NE,45,1.2,1.2,99,0.00,CLR,,0.00,WeatherDisplay:10.37,2013-07-03 11:30:00,
2013-07-03 06:36:00,55.4,55.1,28.88,East,90,1.2,1.2,99,0.00,CLR,,0.00,WeatherDisplay:10.37,2013-07-03 11:36:00,
2013-07-03 06:41:00,56.1,55.8,28.88,NE,45,2.3,2.3,99,0.00,,,0.00,WeatherDisplay:10.37,2013-07-03 11:41:00,
2013-07-03 06:45:00,56.5,56.2,28.88,NE,45,2.3,2.3,99,0.00,,,0.00,WeatherDisplay:10.37,2013-07-03 11:45:00,
2013-07-03 06:50:00,57.4,57.1,28.89,NE,45,2.3,2.3,99,0.00,,,0.00,WeatherDisplay:10.37,2013-07-03 11:50:00,
2013-07-03 06:55:00,58.3,58.0,28.88,North,0,1.2,0.0,99,0.00,,,0.00,WeatherDisplay:10.37,2013-07-03 11:55:00,
2013-07-03 06:59:00,59.0,58.7,28.89,NW,315,1.6,1.6,99,0.00,,,0.00,WeatherDisplay:10.37,2013-07-03 11:59:00,
2013-07-03 07:05:00,59.2,58.3,28.89,NW,315,2.3,2.3,97,0.00,,,0.00,WeatherDisplay:10.37,2013-07-03 12:05:00,
2013-07-03 07:10:00,59.9,59.0,28.89,NW,315,1.2,0.0,97,0.00,,,0.00,WeatherDisplay:10.37,2013-07-03 12:10:00,
2013-07-03 07:15:00,60.6,59.7,28.88,NNW,327,0.0,2.0,97,0.00,,,0.00,WeatherDisplay:10.37,2013-07-03 12:15:00,
2013-07-03 07:16:00,61.3,60.8,28.88,NE,45,1.2,1.2,98,0.00,,,0.00,WeatherDisplay:10.37,2013-07-03 12:16:00,
2013-07-03 07:21:00,62.1,60.9,28.88,NE,45,2.3,2.3,96,0.00,,,0.00,WeatherDisplay:10.37,2013-07-03 12:21:00,
2013-07-03 07:26:00,62.6,60.5,28.88,NE,45,2.3,2.3,93,0.00,,,0.00,WeatherDisplay:10.37,2013-07-03 12:26:00,
2013-07-03 07:32:00,62.6,60.2,28.88,NE,45,3.5,3.5,92,0.00,,,0.00,WeatherDisplay:10.37,2013-07-03 12:32:00,
2013-07-03 07:37:00,63.5,61.1,28.88,NE,45,2.3,2.3,92,0.00,,,0.00,WeatherDisplay:10.37,2013-07-03 12:37:00,
2013-07-03 07:42:00,64.2,61.2,28.88,NE,45,2.3,2.3,90,0.00,,,0.00,WeatherDisplay:10.37,2013-07-03 12:42:00,
2013-07-03 07:46:00,64.9,61.6,28.88,NE,45,2.3,2.3,89,0.00,,,0.00,WeatherDisplay:10.37,2013-07-03 12:46:00,
2013-07-03 07:52:00,65.7,62.0,28.88,East,90,3.5,3.5,88,0.00,,,0.00,WeatherDisplay:10.37,2013-07-03 12:52:00,
2013-07-03 07:57:00,66.4,61.4,28.88,East,90,3.5,3.5,84,0.00,,,0.00,WeatherDisplay:10.37,2013-07-03 12:57:00,
2013-07-03 08:03:00,67.3,62.3,28.88,East,90,3.5,3.5,84,0.00,,,0.00,WeatherDisplay:10.37,2013-07-03 13:03:00,
2013-07-03 08:08:00,68.0,63.0,28.88,East,90,3.5,3.5,84,0.00,,,0.00,WeatherDisplay:10.37,2013-07-03 13:08:00,
2013-07-03 08:13:00,69.1,64.0,28.89,East,90,1.2,1.2,84,0.00,,,0.00,WeatherDisplay:10.37,2013-07-03 13:13:00,
2013-07-03 08:18:00,69.8,63.7,28.89,NE,45,2.3,2.3,81,0.00,,,0.00,WeatherDisplay:10.37,2013-07-03 13:18:00,
2013-07-03 08:23:00,70.9,62.9,28.89,SE,135,2.3,2.3,76,0.00,,,0.00,WeatherDisplay:10.37,2013-07-03 13:23:00,
2013-07-03 08:25:00,70.9,62.6,28.89,SE,135,3.5,3.5,75,0.00,,,0.00,WeatherDisplay:10.37,2013-07-03 13:25:00,
2013-07-03 08:30:00,70.9,62.6,28.89,SE,135,3.5,3.5,75,0.00,,,0.00,WeatherDisplay:10.37,2013-07-03 13:30:00,
2013-07-03 08:35:00,72.0,62.8,28.89,SSE,158,3.5,3.5,73,0.00,,,0.00,WeatherDisplay:10.37,2013-07-03 13:35:00,
2013-07-03 08:37:00,72.1,63.0,28.89,South,180,2.3,2.3,73,0.00,,,0.00,WeatherDisplay:10.37,2013-07-03 13:37:00,
2013-07-03 08:42:00,73.0,63.1,28.89,South,180,3.5,3.5,71,0.00,,,0.00,WeatherDisplay:10.37,2013-07-03 13:42:00,
2013-07-03 08:47:00,72.9,62.5,28.89,South,180,3.5,3.5,70,0.00,,,0.00,WeatherDisplay:10.37,2013-07-03 13:47:00,
2013-07-03 08:52:00,73.0,62.3,28.89,SE,135,3.5,3.5,69,0.00,,,0.00,WeatherDisplay:10.37,2013-07-03 13:52:00,
2013-07-03 08:58:00,73.2,62.8,28.89,SW,225,4.6,4.6,70,0.00,,,0.00,WeatherDisplay:10.37,2013-07-03 13:58:00,
2013-07-03 09:03:00,73.2,62.4,28.89,SW,225,3.5,3.5,69,0.00,,,0.00,WeatherDisplay:10.37,2013-07-03 14:03:00,
2013-07-03 09:06:00,73.2,62.4,28.89,SW,225,3.5,3.5,69,0.00,,,0.00,WeatherDisplay:10.37,2013-07-03 14:06:00,
2013-07-03 09:12:00,73.8,61.7,28.89,SE,135,4.6,4.6,66,0.00,,,0.00,WeatherDisplay:10.37,2013-07-03 14:12:00,
2013-07-03 09:13:00,73.8,62.1,28.88,SE,135,4.6,4.6,67,0.00,,,0.00,WeatherDisplay:10.37,2013-07-03 14:13:00,
2013-07-03 09:18:00,74.7,63.0,28.88,SE,135,3.5,3.5,67,0.00,,,0.00,WeatherDisplay:10.37,2013-07-03 14:18:00,
2013-07-03 09:24:00,75.4,62.4,28.88,South,180,4.6,4.6,64,0.00,,,0.00,WeatherDisplay:10.37,2013-07-03 14:24:00,
2013-07-03 09:29:00,75.7,63.1,28.88,South,180,3.5,3.5,65,0.00,,,0.00,WeatherDisplay:10.37,2013-07-03 14:29:00,
2013-07-03 09:32:00,76.1,63.0,28.88,East,90,4.6,4.6,64,0.00,,,0.00,WeatherDisplay:10.37,2013-07-03 14:32:00,
2013-07-03 09:37:00,76.5,62.9,28.88,ESE,112,4.6,4.6,63,0.00,,,0.00,WeatherDisplay:10.37,2013-07-03 14:37:00,
2013-07-03 09:38:00,76.5,63.4,28.87,SE,135,4.6,4.6,64,0.00,,,0.00,WeatherDisplay:10.37,2013-07-03 14:38:00,
2013-07-03 09:43:00,76.6,60.3,28.87,South,180,4.6,4.6,57,0.00,,,0.00,WeatherDisplay:10.37,2013-07-03 14:43:00,
2013-07-03 09:48:00,76.8,61.4,28.87,South,180,4.6,4.6,59,0.00,,,0.00,WeatherDisplay:10.37,2013-07-03 14:48:00,
2013-07-03 09:53:00,77.2,60.8,28.87,South,180,5.8,5.8,57,0.00,,,0.00,WeatherDisplay:10.37,2013-07-03 14:53:00,
2013-07-03 09:58:00,77.5,61.1,28.88,South,180,5.8,5.8,57,0.00,,,0.00,WeatherDisplay:10.37,2013-07-03 14:58:00,
2013-07-03 09:59:00,77.5,60.6,28.87,South,180,5.8,5.8,56,0.00,,,0.00,WeatherDisplay:10.37,2013-07-03 14:59:00,
2013-07-03 10:03:00,77.5,60.6,28.87,South,180,5.8,5.8,56,0.00,,,0.00,WeatherDisplay:10.37,2013-07-03 15:03:00,
2013-07-03 10:09:00,77.5,62.1,28.87,South,180,6.9,6.9,59,0.00,,,0.00,WeatherDisplay:10.37,2013-07-03 15:09:00,
2013-07-03 10:14:00,77.5,60.6,28.87,SW,225,5.8,5.8,56,0.00,,,0.00,WeatherDisplay:10.37,2013-07-03 15:14:00,
2013-07-03 10:15:00,77.5,60.6,28.87,South,180,5.8,5.8,56,0.00,,,0.00,WeatherDisplay:10.37,2013-07-03 15:15:00,
2013-07-03 10:20:00,78.1,61.1,28.87,South,180,5.8,5.8,56,0.00,,,0.00,WeatherDisplay:10.37,2013-07-03 15:20:00,
2013-07-03 10:26:00,78.4,62.4,28.87,SW,225,5.8,5.8,58,0.00,,,0.00,WeatherDisplay:10.37,2013-07-03 15:26:00,
2013-07-03 10:30:00,79.2,63.1,28.87,SSE,158,4.6,4.6,58,0.00,,,0.00,WeatherDisplay:10.37,2013-07-03 15:30:00,
2013-07-03 10:35:00,80.1,62.4,28.86,South,180,5.8,5.8,55,0.00,,,0.00,WeatherDisplay:10.37,2013-07-03 15:35:00,
2013-07-03 10:40:00,80.2,63.1,28.86,SW,225,5.8,5.8,56,0.00,,,0.00,WeatherDisplay:10.37,2013-07-03 15:40:00,
2013-07-03 10:45:00,80.4,62.8,28.86,SW,225,6.9,6.9,55,0.00,,,0.00,WeatherDisplay:10.37,2013-07-03 15:45:00,
2013-07-03 10:51:00,80.6,63.5,28.86,NW,315,3.5,3.5,56,0.00,,,0.00,WeatherDisplay:10.37,2013-07-03 15:51:00,
2013-07-03 10:52:00,81.0,62.7,28.86,SE,135,3.5,3.5,54,0.00,,,0.00,WeatherDisplay:10.37,2013-07-03 15:52:00,
2013-07-03 10:53:00,81.1,61.3,28.86,South,180,5.8,5.8,51,0.00,,,0.00,WeatherDisplay:10.37,2013-07-03 15:53:00,
2013-07-03 10:59:00,81.3,60.9,28.86,SW,225,4.6,4.6,50,0.00,,,0.00,WeatherDisplay:10.37,2013-07-03 15:59:00,
2013-07-03 11:05:00,81.5,61.6,28.86,SW,225,3.5,3.5,51,0.00,,,0.00,WeatherDisplay:10.37,2013-07-03 16:05:00,
2013-07-03 11:10:00,81.9,61.4,28.86,South,180,5.8,5.8,50,0.00,,,0.00,WeatherDisplay:10.37,2013-07-03 16:10:00,
2013-07-03 11:15:00,82.4,59.5,28.86,South,180,5.8,5.8,46,0.00,,,0.00,WeatherDisplay:10.37,2013-07-03 16:15:00,
2013-07-03 11:20:00,82.2,59.4,28.86,SW,225,10.4,10.4,46,0.00,,,0.00,WeatherDisplay:10.37,2013-07-03 16:20:00,
2013-07-03 11:25:00,82.2,61.7,28.86,South,180,4.6,4.6,50,0.00,,,0.00,WeatherDisplay:10.37,2013-07-03 16:25:00,
2013-07-03 11:31:00,82.9,61.2,28.85,South,180,5.8,5.8,48,0.00,,,0.00,WeatherDisplay:10.37,2013-07-03 16:31:00,
2013-07-03 11:36:00,82.6,59.7,28.85,SE,135,5.8,5.8,46,0.00,,,0.00,WeatherDisplay:10.37,2013-07-03 16:36:00,
2013-07-03 11:41:00,83.5,61.7,28.85,South,180,5.8,5.8,48,0.00,,,0.00,WeatherDisplay:10.37,2013-07-03 16:41:00,
2013-07-03 11:47:00,84.0,61.6,28.85,SE,135,5.8,5.8,47,0.00,,,0.00,WeatherDisplay:10.37,2013-07-03 16:47:00,
2013-07-03 11:52:00,84.7,61.0,28.85,South,180,6.0,6.0,45,0.00,,,0.00,WeatherDisplay:10.37,2013-07-03 16:52:00,
2013-07-03 11:57:00,84.9,59.9,28.85,SW,225,8.1,8.1,43,0.00,,,0.00,WeatherDisplay:10.37,2013-07-03 16:57:00,
2013-07-03 12:02:00,83.8,59.6,28.85,SW,225,8.1,8.1,44,0.00,,,0.00,WeatherDisplay:10.37,2013-07-03 17:02:00,
2013-07-03 12:07:00,83.8,59.6,28.85,SW,225,8.1,8.1,44,0.00,,,0.00,WeatherDisplay:10.37,2013-07-03 17:07:00,
2013-07-03 12:12:00,84.2,60.6,28.85,SE,135,9.2,9.2,45,0.00,,,0.00,WeatherDisplay:10.37,2013-07-03 17:12:00,
2013-07-03 12:17:00,84.7,59.8,28.85,SE,135,4.6,4.6,43,0.00,,,0.00,WeatherDisplay:10.37,2013-07-03 17:17:00,
2013-07-03 12:22:00,84.6,59.6,28.84,South,180,8.1,8.1,43,0.00,,,0.00,WeatherDisplay:10.37,2013-07-03 17:22:00,
2013-07-03 12:28:00,84.4,58.1,28.84,SW,225,5.8,5.8,41,0.00,,,0.00,WeatherDisplay:10.37,2013-07-03 17:28:00,
2013-07-03 12:33:00,84.9,59.3,28.84,SE,135,3.5,3.5,42,0.00,,,0.00,WeatherDisplay:10.37,2013-07-03 17:33:00,
2013-07-03 12:38:00,84.9,59.9,28.84,South,180,4.6,4.6,43,0.00,,,0.00,WeatherDisplay:10.37,2013-07-03 17:38:00,
2013-07-03 12:43:00,85.5,59.1,28.84,South,180,5.8,0.0,41,0.00,,,0.00,WeatherDisplay:10.37,2013-07-03 17:43:00,
2013-07-03 12:48:00,85.8,59.4,28.84,South,180,3.8,3.8,41,0.00,,,0.00,WeatherDisplay:10.37,2013-07-03 17:48:00,
2013-07-03 12:54:00,86.0,58.9,28.84,South,180,5.8,5.8,40,0.00,,,0.00,WeatherDisplay:10.37,2013-07-03 17:54:00,
2013-07-03 12:59:00,86.2,60.4,28.83,South,180,8.3,8.3,42,0.00,,,0.00,WeatherDisplay:10.37,2013-07-03 17:59:00,
2013-07-03 13:05:00,86.2,60.4,28.84,South,180,8.1,8.1,42,0.00,,,0.00,WeatherDisplay:10.37,2013-07-03 18:05:00,
2013-07-03 13:10:00,85.6,60.6,28.83,NE,45,5.8,5.8,43,0.00,,,0.00,WeatherDisplay:10.37,2013-07-03 18:10:00,
2013-07-03 13:15:00,86.0,60.2,28.84,ESE,115,2.0,8.0,42,0.00,,,0.00,WeatherDisplay:10.37,2013-07-03 18:15:00,
2013-07-03 13:20:00,86.7,59.5,28.83,SW,225,3.5,3.5,40,0.00,,,0.00,WeatherDisplay:10.37,2013-07-03 18:20:00,
2013-07-03 13:25:00,85.8,59.4,28.83,SW,225,6.9,6.9,41,0.00,,,0.00,WeatherDisplay:10.37,2013-07-03 18:25:00,
2013-07-03 13:31:00,85.1,58.8,28.83,SW,225,8.1,8.1,41,0.00,,,0.00,WeatherDisplay:10.37,2013-07-03 18:31:00,
2013-07-03 13:36:00,85.1,59.4,28.82,SW,225,10.4,10.4,42,0.00,,,0.00,WeatherDisplay:10.37,2013-07-03 18:36:00,
2013-07-03 13:41:00,85.3,58.2,28.83,SSW,202,6.9,6.9,40,0.00,,,0.00,WeatherDisplay:10.37,2013-07-03 18:41:00,
2013-07-03 13:46:00,86.0,58.9,28.83,South,180,3.5,3.5,40,0.00,,,0.00,WeatherDisplay:10.37,2013-07-03 18:46:00,
2013-07-03 13:51:00,86.7,58.8,28.82,South,180,5.8,5.8,39,0.00,,,0.00,WeatherDisplay:10.37,2013-07-03 18:51:00,
2013-07-03 13:56:00,87.3,58.6,28.82,South,180,5.4,5.4,38,0.00,,,0.00,WeatherDisplay:10.37,2013-07-03 18:56:00,
2013-07-03 14:01:00,87.6,58.1,28.82,South,180,8.1,8.1,37,0.00,,,0.00,WeatherDisplay:10.37,2013-07-03 19:01:00,
2013-07-03 14:07:00,86.9,59.0,28.82,SE,135,8.1,8.1,39,0.00,,,0.00,WeatherDisplay:10.37,2013-07-03 19:07:00,
2013-07-03 14:12:00,87.1,58.4,28.82,South,180,5.8,5.8,38,0.00,,,0.00,WeatherDisplay:10.37,2013-07-03 19:12:00,
2013-07-03 14:17:00,87.4,58.7,28.82,SW,225,3.5,3.5,38,0.00,,,0.00,WeatherDisplay:10.37,2013-07-03 19:17:00,
2013-07-03 14:22:00,87.4,58.7,28.82,SW,225,3.5,3.5,38,0.00,,,0.00,WeatherDisplay:10.37,2013-07-03 19:22:00,
2013-07-03 14:28:00,86.2,58.3,28.82,SW,225,8.1,8.1,39,0.00,,,0.00,WeatherDisplay:10.37,2013-07-03 19:28:00,
2013-07-03 14:33:00,84.9,59.9,28.81,SW,225,9.2,9.2,43,0.00,,,0.00,WeatherDisplay:10.37,2013-07-03 19:33:00,
2013-07-03 14:38:00,86.0,58.2,28.81,SW,225,8.1,8.1,39,0.00,,,0.00,WeatherDisplay:10.37,2013-07-03 19:38:00,
2013-07-03 14:43:00,86.7,58.1,28.81,South,180,5.8,5.8,38,0.00,,,0.00,WeatherDisplay:10.37,2013-07-03 19:43:00,
2013-07-03 14:48:00,86.2,57.6,28.81,SW,225,11.5,11.5,38,0.00,,,0.00,WeatherDisplay:10.37,2013-07-03 19:48:00,
2013-07-03 14:54:00,86.0,58.9,28.81,SW,225,8.1,8.1,40,0.00,,,0.00,WeatherDisplay:10.37,2013-07-03 19:54:00,
2013-07-03 14:59:00,86.4,57.8,28.81,South,180,10.4,10.4,38,0.00,,,0.00,WeatherDisplay:10.37,2013-07-03 19:59:00,
2013-07-03 15:04:00,86.4,58.5,28.81,SW,225,9.2,9.2,39,0.00,,,0.00,WeatherDisplay:10.37,2013-07-03 20:04:00,
2013-07-03 15:10:00,87.1,57.7,28.81,SW,225,5.8,5.8,37,0.00,,,0.00,WeatherDisplay:10.37,2013-07-03 20:10:00,
2013-07-03 15:15:00,87.3,58.6,28.81,SE,135,8.1,8.1,38,0.00,,,0.00,WeatherDisplay:10.37,2013-07-03 20:15:00,
2013-07-03 15:20:00,87.6,58.1,28.80,SE,135,8.1,8.1,37,0.00,,,0.00,WeatherDisplay:10.37,2013-07-03 20:20:00,
2013-07-03 15:25:00,88.3,58.8,28.80,South,180,6.9,6.9,37,0.00,,,0.00,WeatherDisplay:10.37,2013-07-03 20:25:00,
2013-07-03 15:30:00,87.1,56.9,28.80,East,90,5.8,5.8,36,0.00,,,0.00,WeatherDisplay:10.37,2013-07-03 20:30:00,
2013-07-03 15:36:00,86.2,58.3,28.80,SE,135,9.2,9.2,39,0.00,,,0.00,WeatherDisplay:10.37,2013-07-03 20:36:00,
2013-07-03 15:41:00,86.2,58.3,28.80,South,180,6.9,6.9,39,0.00,,,0.00,WeatherDisplay:10.37,2013-07-03 20:41:00,
2013-07-03 15:46:00,87.1,58.4,28.80,South,180,5.8,5.8,38,0.00,,,0.00,WeatherDisplay:10.37,2013-07-03 20:46:00,
2013-07-03 15:51:00,86.9,59.0,28.80,North,9,12.7,12.7,39,0.00,,,0.00,WeatherDisplay:10.37,2013-07-03 20:51:00,
2013-07-03 15:56:00,87.1,59.8,28.80,SE,135,9.2,9.2,40,0.00,,,0.00,WeatherDisplay:10.37,2013-07-03 20:56:00,
2013-07-03 16:01:00,86.4,59.2,28.80,SE,135,3.5,3.5,40,0.00,,,0.00,WeatherDisplay:10.37,2013-07-03 21:01:00,
2013-07-03 16:07:00,86.5,58.6,28.80,South,180,9.2,9.2,39,0.00,,,0.00,WeatherDisplay:10.37,2013-07-03 21:07:00,
2013-07-03 16:12:00,86.7,58.8,28.80,SW,225,5.8,5.8,39,0.00,,,0.00,WeatherDisplay:10.37,2013-07-03 21:12:00,
2013-07-03 16:17:00,86.5,57.9,28.80,SW,225,8.1,8.1,38,0.00,,,0.00,WeatherDisplay:10.37,2013-07-03 21:17:00,
2013-07-03 16:22:00,85.1,57.4,28.80,South,180,4.6,4.6,39,0.00,,,0.00,WeatherDisplay:10.37,2013-07-03 21:22:00,
2013-07-03 16:27:00,86.5,57.2,28.79,SW,225,3.5,3.5,37,0.00,,,0.00,WeatherDisplay:10.37,2013-07-03 21:27:00,
2013-07-03 16:32:00,86.5,58.6,28.80,South,180,5.8,5.8,39,0.00,,,0.00,WeatherDisplay:10.37,2013-07-03 21:32:00,
2013-07-03 16:37:00,84.9,59.3,28.79,South,180,9.2,9.2,42,0.00,,,0.00,WeatherDisplay:10.37,2013-07-03 21:37:00,
2013-07-03 16:43:00,84.6,58.9,28.79,SW,225,5.8,5.8,42,0.00,,,0.00,WeatherDisplay:10.37,2013-07-03 21:43:00,
2013-07-03 16:48:00,85.5,58.4,28.79,SW,225,9.2,9.2,40,0.00,,,0.00,WeatherDisplay:10.37,2013-07-03 21:48:00,
2013-07-03 16:53:00,86.9,59.7,28.79,South,180,8.1,8.1,40,0.00,,,0.00,WeatherDisplay:10.37,2013-07-03 21:53:00,
2013-07-03 16:58:00,88.3,60.2,28.79,SE,135,5.8,5.8,39,0.09,RA,,0.09,WeatherDisplay:10.37,2013-07-03 21:58:00,
2013-07-03 17:03:00,88.5,59.7,28.78,SE,135,3.5,3.5,38,0.09,RA,,0.09,WeatherDisplay:10.37,2013-07-03 22:03:00,
2013-07-03 17:08:00,87.3,59.3,28.78,South,180,3.5,3.5,39,0.09,,,0.09,WeatherDisplay:10.37,2013-07-03 22:08:00,
2013-07-03 17:14:00,87.8,59.8,28.78,South,180,5.8,5.8,39,0.09,,,0.09,WeatherDisplay:10.37,2013-07-03 22:14:00,
2013-07-03 17:19:00,88.0,59.9,28.77,South,180,5.8,5.8,39,0.09,,,0.09,WeatherDisplay:10.37,2013-07-03 22:19:00,
2013-07-03 17:25:00,87.1,57.7,28.77,SW,225,5.8,5.8,37,0.09,,,0.09,WeatherDisplay:10.37,2013-07-03 22:25:00,
2013-07-03 17:30:00,87.3,60.0,28.77,South,180,9.2,9.2,40,0.09,,,0.09,WeatherDisplay:10.37,2013-07-03 22:30:00,
2013-07-03 17:36:00,87.6,58.9,28.76,East,90,5.8,5.8,38,0.09,,,0.09,WeatherDisplay:10.37,2013-07-03 22:36:00,
2013-07-03 17:41:00,88.3,58.8,28.76,SW,225,8.1,8.1,37,0.09,,,0.09,WeatherDisplay:10.37,2013-07-03 22:41:00,
2013-07-03 17:47:00,88.2,57.1,28.77,SW,225,4.6,4.6,35,0.09,,,0.09,WeatherDisplay:10.37,2013-07-03 22:47:00,
2013-07-03 17:52:00,88.9,57.7,28.76,South,180,8.1,8.1,35,0.09,,,0.09,WeatherDisplay:10.37,2013-07-03 22:52:00,
2013-07-03 17:57:00,87.4,58.0,28.76,SSW,202,10.4,10.4,37,0.09,,,0.09,WeatherDisplay:10.37,2013-07-03 22:57:00,
2013-07-03 18:02:00,87.1,56.9,28.76,South,180,4.6,4.6,36,0.00,,,0.09,WeatherDisplay:10.37,2013-07-03 23:02:00,
2013-07-03 18:08:00,87.8,57.5,28.76,SW,225,4.6,4.6,36,0.00,,,0.09,WeatherDisplay:10.37,2013-07-03 23:08:00,
2013-07-03 18:13:00,88.3,57.2,28.76,South,180,5.8,5.8,35,0.00,,,0.09,WeatherDisplay:10.37,2013-07-03 23:13:00,
2013-07-03 18:18:00,87.3,58.6,28.76,SW,225,9.2,9.2,38,0.00,,,0.09,WeatherDisplay:10.37,2013-07-03 23:18:00,
2013-07-03 18:23:00,86.2,57.6,28.76,SW,225,9.2,9.2,38,0.00,,,0.09,WeatherDisplay:10.37,2013-07-03 23:23:00,
2013-07-03 18:28:00,86.0,58.2,28.76,SW,225,8.1,8.1,39,0.00,,,0.09,WeatherDisplay:10.37,2013-07-03 23:28:00,
2013-07-03 18:34:00,86.4,59.9,28.76,South,180,5.8,5.8,41,0.00,,,0.09,WeatherDisplay:10.37,2013-07-03 23:34:00,
2013-07-03 18:39:00,87.3,59.3,28.76,South,180,5.8,5.8,39,0.00,,,0.09,WeatherDisplay:10.37,2013-07-03 23:39:00,
2013-07-03 18:44:00,87.8,59.8,28.76,SE,135,5.8,5.8,39,0.00,,,0.09,WeatherDisplay:10.37,2013-07-03 23:44:00,
2013-07-03 18:49:00,88.0,59.2,28.76,South,180,4.6,4.6,38,0.00,,,0.09,WeatherDisplay:10.37,2013-07-03 23:49:00,
2013-07-03 18:55:00,88.0,59.9,28.76,South,180,6.9,6.9,39,0.00,,,0.09,WeatherDisplay:10.37,2013-07-03 23:55:00,
2013-07-03 19:00:00,87.4,60.8,28.75,South,180,4.6,4.6,41,0.00,,,0.09,WeatherDisplay:10.37,2013-07-04 00:00:00,
2013-07-03 19:05:00,87.4,60.8,28.75,South,180,4.6,4.6,41,0.00,,,0.09,WeatherDisplay:10.37,2013-07-04 00:05:00,
2013-07-03 19:10:00,87.4,60.2,28.75,South,180,6.9,6.9,40,0.00,,,0.09,WeatherDisplay:10.37,2013-07-04 00:10:00,
2013-07-03 19:15:00,86.7,60.2,28.75,SSE,158,6.9,6.9,41,0.00,,,0.09,WeatherDisplay:10.37,2013-07-04 00:15:00,
2013-07-03 19:21:00,86.5,60.0,28.75,South,180,8.1,8.1,41,0.00,,,0.09,WeatherDisplay:10.37,2013-07-04 00:21:00,
2013-07-03 19:26:00,86.2,60.4,28.75,South,180,5.8,5.8,42,0.00,,,0.09,WeatherDisplay:10.37,2013-07-04 00:26:00,
2013-07-03 19:31:00,85.6,60.6,28.75,South,180,6.9,6.9,43,0.00,,,0.09,WeatherDisplay:10.37,2013-07-04 00:31:00,
2013-07-03 19:36:00,85.6,61.2,28.75,South,180,4.6,4.6,44,0.00,,,0.09,WeatherDisplay:10.37,2013-07-04 00:36:00,
2013-07-03 19:41:00,85.6,61.9,28.75,South,180,4.6,4.6,45,0.00,,,0.09,WeatherDisplay:10.37,2013-07-04 00:41:00,
2013-07-03 19:46:00,85.5,61.7,28.75,SSE,158,3.8,3.8,45,0.00,,,0.09,WeatherDisplay:10.37,2013-07-04 00:46:00,
2013-07-03 19:52:00,85.5,62.3,28.76,SE,135,2.3,2.3,46,0.00,,,0.09,WeatherDisplay:10.37,2013-07-04 00:52:00,
2013-07-03 19:57:00,85.1,62.6,28.75,South,180,3.5,3.5,47,0.00,,,0.09,WeatherDisplay:10.37,2013-07-04 00:57:00,
2013-07-03 20:02:00,85.1,62.6,28.76,SE,135,3.5,3.5,47,0.00,,,0.09,WeatherDisplay:10.37,2013-07-04 01:02:00,
2013-07-03 20:08:00,83.7,61.9,28.75,South,180,3.5,3.5,48,0.00,,,0.09,WeatherDisplay:10.37,2013-07-04 01:08:00,
2013-07-03 20:13:00,82.6,61.5,28.75,SE,135,2.3,2.3,49,0.00,,,0.09,WeatherDisplay:10.37,2013-07-04 01:13:00,
2013-07-03 20:18:00,81.5,61.6,28.75,South,180,2.3,2.3,51,0.00,,,0.09,WeatherDisplay:10.37,2013-07-04 01:18:00,
2013-07-03 20:24:00,80.2,61.6,28.75,South,180,2.3,2.3,53,0.00,,,0.09,WeatherDisplay:10.37,2013-07-04 01:24:00,
2013-07-03 20:29:00,79.0,61.4,28.75,SE,135,2.3,2.3,55,0.00,,,0.09,WeatherDisplay:10.37,2013-07-04 01:29:00,
2013-07-03 20:34:00,78.1,61.1,28.75,SE,135,2.3,2.3,56,0.00,,,0.09,WeatherDisplay:10.37,2013-07-04 01:34:00,
2013-07-03 20:39:00,77.5,60.6,28.75,SE,135,3.5,3.5,56,0.00,,,0.09,WeatherDisplay:10.37,2013-07-04 01:39:00,
2013-07-03 20:45:00,77.2,60.8,28.75,SE,129,1.0,3.0,57,0.00,,,0.09,WeatherDisplay:10.37,2013-07-04 01:45:00,
2013-07-03 20:50:00,76.6,60.8,28.75,SE,135,2.3,2.3,58,0.00,,,0.09,WeatherDisplay:10.37,2013-07-04 01:50:00,
2013-07-03 20:55:00,76.1,60.7,28.75,South,180,1.2,1.2,59,0.00,,,0.09,WeatherDisplay:10.37,2013-07-04 01:55:00,
2013-07-03 21:00:00,75.9,61.0,28.75,SE,135,2.3,2.3,60,0.00,,,0.09,WeatherDisplay:10.37,2013-07-04 02:00:00,
2013-07-03 21:06:00,75.9,61.0,28.75,SE,135,1.2,1.2,60,0.00,,,0.09,WeatherDisplay:10.37,2013-07-04 02:06:00,
2013-07-03 21:11:00,74.7,60.8,28.75,South,180,1.2,1.2,62,0.00,,,0.09,WeatherDisplay:10.37,2013-07-04 02:11:00,
2013-07-03 21:16:00,73.8,60.8,28.75,South,180,1.2,1.2,64,0.00,,,0.09,WeatherDisplay:10.37,2013-07-04 02:16:00,
2013-07-03 21:21:00,72.9,60.8,28.75,South,180,1.2,1.2,66,0.00,,,0.09,WeatherDisplay:10.37,2013-07-04 02:21:00,
2013-07-03 21:27:00,72.3,60.7,28.76,South,180,1.2,0.0,67,0.00,,,0.09,WeatherDisplay:10.37,2013-07-04 02:27:00,
2013-07-03 21:32:00,72.0,60.8,28.76,SW,225,1.2,1.2,68,0.00,,,0.09,WeatherDisplay:10.37,2013-07-04 02:32:00,
2013-07-03 21:37:00,71.6,60.9,28.76,SW,225,1.2,1.2,69,0.00,,,0.09,WeatherDisplay:10.37,2013-07-04 02:37:00,
2013-07-03 21:43:00,71.2,61.4,28.76,SW,225,1.2,1.2,71,0.00,,,0.09,WeatherDisplay:10.37,2013-07-04 02:43:00,
2013-07-03 21:49:00,70.7,61.2,28.76,SW,225,1.6,1.6,72,0.00,,,0.09,WeatherDisplay:10.37,2013-07-04 02:49:00,
2013-07-03 21:54:00,70.5,61.4,28.76,SW,225,1.2,1.2,73,0.00,,,0.09,WeatherDisplay:10.37,2013-07-04 02:54:00,
2013-07-03 21:59:00,70.2,61.5,28.76,South,180,1.2,1.2,74,0.00,,,0.09,WeatherDisplay:10.37,2013-07-04 02:59:00,
2013-07-03 22:04:00,70.0,61.3,28.76,SW,225,1.2,1.2,74,0.00,,,0.09,WeatherDisplay:10.37,2013-07-04 03:04:00,
2013-07-03 22:09:00,69.3,61.4,28.77,South,180,2.3,2.3,76,0.00,,,0.09,WeatherDisplay:10.37,2013-07-04 03:09:00,
2013-07-03 22:14:00,68.7,61.2,28.77,South,180,1.2,1.2,77,0.00,,,0.09,WeatherDisplay:10.37,2013-07-04 03:14:00,
2013-07-03 22:19:00,68.4,61.2,28.77,SSW,202,2.3,2.3,78,0.00,,,0.09,WeatherDisplay:10.37,2013-07-04 03:19:00,
2013-07-03 22:25:00,68.0,60.9,28.77,SW,225,2.3,2.3,78,0.00,,,0.09,WeatherDisplay:10.37,2013-07-04 03:25:00,
2013-07-03 22:30:00,67.6,61.2,28.77,SSW,202,2.3,2.3,80,0.00,,,0.09,WeatherDisplay:10.37,2013-07-04 03:30:00,
2013-07-03 22:36:00,67.5,61.4,28.76,South,180,2.3,2.3,81,0.00,,,0.09,WeatherDisplay:10.37,2013-07-04 03:36:00,
2013-07-03 22:41:00,67.1,61.1,28.77,South,180,2.3,2.3,81,0.00,,,0.09,WeatherDisplay:10.37,2013-07-04 03:41:00,
2013-07-03 22:46:00,67.1,61.1,28.77,South,180,2.3,2.3,81,0.00,,,0.09,WeatherDisplay:10.37,2013-07-04 03:46:00,
2013-07-03 22:51:00,67.1,61.1,28.76,SW,225,2.3,2.3,81,0.00,,,0.09,WeatherDisplay:10.37,2013-07-04 03:51:00,
2013-07-03 22:57:00,66.9,60.9,28.77,SW,225,2.3,2.3,81,0.00,,,0.09,WeatherDisplay:10.37,2013-07-04 03:57:00,
2013-07-03 23:01:00,66.9,60.9,28.77,SSW,202,3.5,3.5,81,0.00,,,0.09,WeatherDisplay:10.37,2013-07-04 04:01:00,
2013-07-03 23:02:00,66.9,60.9,28.77,SSW,202,3.5,3.5,81,0.00,,,0.09,WeatherDisplay:10.37,2013-07-04 04:02:00,
2013-07-03 23:07:00,66.9,60.9,28.77,SSW,202,3.5,3.5,81,0.00,,,0.09,WeatherDisplay:10.37,2013-07-04 04:07:00,
2013-07-03 23:12:00,66.4,60.4,28.77,SW,225,2.3,2.3,81,0.00,,,0.09,WeatherDisplay:10.37,2013-07-04 04:12:00,
2013-07-03 23:17:00,66.4,60.7,28.77,South,180,3.5,3.5,82,0.00,,,0.09,WeatherDisplay:10.37,2013-07-04 04:17:00,
2013-07-03 23:22:00,66.4,60.4,28.77,South,180,3.5,3.5,81,0.00,,,0.09,WeatherDisplay:10.37,2013-07-04 04:22:00,
2013-07-03 23:28:00,66.4,60.7,28.77,South,180,5.8,5.8,82,0.00,,,0.09,WeatherDisplay:10.37,2013-07-04 04:28:00,
2013-07-03 23:33:00,66.7,60.7,28.77,SSE,158,3.5,3.5,81,0.00,,,0.09,WeatherDisplay:10.37,2013-07-04 04:33:00,
2013-07-03 23:38:00,67.1,61.1,28.77,South,180,4.6,4.6,81,0.00,,,0.09,WeatherDisplay:10.37,2013-07-04 04:38:00,
2013-07-03 23:43:00,66.9,60.5,28.77,South,180,3.5,3.5,80,0.00,,,0.09,WeatherDisplay:10.37,2013-07-04 04:43:00,
2013-07-03 23:49:00,66.4,60.4,28.77,SW,225,3.5,3.5,81,0.00,,,0.09,WeatherDisplay:10.37,2013-07-04 04:49:00,
2013-07-03 23:54:00,65.8,60.2,28.77,South,180,2.3,2.3,82,0.00,,,0.09,WeatherDisplay:10.37,2013-07-04 04:54:00,
2013-07-03 23:59:00,65.5,60.5,28.76,South,180,3.5,3.5,84,0.00,,,0.09,WeatherDisplay:10.37,2013-07-04 04:59:00,